createdAt,value
2022-11-24T00:02:16.370Z,100507.23
2022-11-24T00:04:51.113Z,100508.65
2022-11-24T00:07:26.044Z,100506.29
2022-11-24T00:12:46.353Z,100498.29
2022-11-24T00:15:20.998Z,100502.77
2022-11-24T00:17:53.241Z,100505.42
2022-11-24T00:20:25.475Z,100511.01
2022-11-24T00:22:57.707Z,100509.00
2022-11-24T00:25:36.223Z,100511.98
2022-11-24T00:28:08.275Z,100514.30
2022-11-24T00:30:40.428Z,100511.94
2022-11-24T00:33:17.342Z,100509.16
2022-11-24T00:35:58.199Z,100510.50
2022-11-24T00:38:30.103Z,100507.39
2022-11-24T00:41:02.097Z,100507.94
2022-11-24T00:43:34.122Z,100501.84
2022-11-24T00:46:09.198Z,100505.48
2022-11-24T00:48:44.284Z,100504.98
2022-11-24T00:51:18.297Z,100503.14
2022-11-24T00:53:50.425Z,100502.84
2022-11-24T00:56:25.961Z,100502.03
2022-11-24T00:58:58.363Z,100506.02
2022-11-24T01:01:32.138Z,100504.97
2022-11-24T01:04:05.565Z,100505.79
2022-11-24T01:06:38.411Z,100516.70
2022-11-24T01:09:12.111Z,100522.87
2022-11-24T01:12:02.634Z,100524.41
2022-11-24T01:14:35.343Z,100526.23
2022-11-24T01:17:08.043Z,100534.17
2022-11-24T01:19:39.992Z,100527.17
2022-11-24T01:22:12.098Z,100527.52
2022-11-24T01:24:44.359Z,100525.97
2022-11-24T01:27:16.270Z,100513.41
2022-11-24T01:29:49.525Z,100510.72
2022-11-24T01:32:21.696Z,100511.73
2022-11-24T01:34:56.340Z,100509.82
2022-11-24T01:37:28.672Z,100510.86
2022-11-24T01:40:00.777Z,100514.48
2022-11-24T01:42:47.551Z,100518.57
2022-11-24T01:45:41.654Z,100520.25
2022-11-24T01:48:27.177Z,100530.45
2022-11-24T01:51:08.646Z,100530.98
2022-11-24T01:53:43.325Z,100536.36
2022-11-24T01:56:20.428Z,100534.80
2022-11-24T01:58:57.178Z,100534.52
2022-11-24T02:01:31.653Z,100526.78
2022-11-24T02:04:07.750Z,100520.91
2022-11-24T02:06:42.657Z,100520.29
2022-11-24T02:09:20.976Z,100521.87
2022-11-24T02:11:54.671Z,100525.33
2022-11-24T02:14:27.950Z,100527.28
2022-11-24T02:17:00.338Z,100523.94
2022-11-24T02:19:42.905Z,100511.20
2022-11-24T02:22:19.783Z,100520.04
2022-11-24T02:24:56.090Z,100525.94
2022-11-24T02:27:28.866Z,100517.34
2022-11-24T02:30:01.345Z,100515.84
2022-11-24T02:32:37.521Z,100516.23
2022-11-24T02:35:12.089Z,100510.67
2022-11-24T02:37:44.304Z,100511.30
2022-11-24T02:40:25.756Z,100512.00
2022-11-24T02:43:03.126Z,100513.21
2022-11-24T02:45:37.291Z,100508.91
2022-11-24T02:48:09.871Z,100505.23
2022-11-24T02:50:42.040Z,100502.06
2022-11-24T02:53:13.992Z,100502.91
2022-11-24T02:55:45.909Z,100503.14
2022-11-24T02:58:17.923Z,100509.35
2022-11-24T03:00:50.218Z,100510.80
2022-11-24T03:03:23.738Z,100520.29
2022-11-24T03:05:55.739Z,100523.85
2022-11-24T03:08:27.685Z,100526.00
2022-11-24T03:10:59.629Z,100524.69
2022-11-24T03:13:31.949Z,100521.84
2022-11-24T03:16:04.065Z,100523.81
2022-11-24T03:18:36.045Z,100525.02
2022-11-24T03:21:09.227Z,100523.00
2022-11-24T03:23:41.357Z,100523.66
2022-11-24T03:26:14.763Z,100526.55
2022-11-24T03:28:46.879Z,100524.58
2022-11-24T03:31:19.151Z,100522.75
2022-11-24T03:33:53.764Z,100520.39
2022-11-24T03:36:26.276Z,100522.84
2022-11-24T03:38:58.246Z,100524.99
2022-11-24T03:41:30.389Z,100516.08
2022-11-24T03:44:02.471Z,100506.08
2022-11-24T03:46:34.803Z,100504.70
2022-11-24T03:49:08.155Z,100512.69
2022-11-24T03:51:42.954Z,100517.28
2022-11-24T03:54:15.064Z,100513.90
2022-11-24T03:56:49.916Z,100520.92
2022-11-24T03:59:21.831Z,100522.83
2022-11-24T04:01:53.816Z,100512.27
2022-11-24T04:04:26.035Z,100516.41
2022-11-24T04:06:58.274Z,100529.14
2022-11-24T04:09:30.256Z,100530.09
2022-11-24T04:12:19.971Z,100516.64
2022-11-24T04:14:51.846Z,100521.03
2022-11-24T04:17:23.813Z,100526.84
2022-11-24T04:19:58.986Z,100522.33
2022-11-24T04:22:31.358Z,100531.08
2022-11-24T04:25:04.321Z,100541.96
2022-11-24T04:27:37.964Z,100539.14
2022-11-24T04:30:12.552Z,100542.23
2022-11-24T04:32:44.506Z,100543.63
2022-11-24T04:35:16.875Z,100551.36
2022-11-24T04:37:49.960Z,100554.70
2022-11-24T04:40:22.093Z,100559.58
2022-11-24T04:42:57.748Z,100561.58
2022-11-24T04:45:29.720Z,100564.55
2022-11-24T04:48:04.587Z,100565.56
2022-11-24T04:50:36.923Z,100562.71
2022-11-24T04:53:08.965Z,100572.48
2022-11-24T04:55:48.252Z,100572.92
2022-11-24T04:58:23.221Z,100570.73
2022-11-24T05:00:59.967Z,100577.29
2022-11-24T05:03:32.108Z,100577.57
2022-11-24T05:06:07.677Z,100581.44
2022-11-24T05:08:40.184Z,100585.08
2022-11-24T05:11:12.129Z,100594.58
2022-11-24T05:13:44.142Z,100597.36
2022-11-24T05:16:16.476Z,100606.00
2022-11-24T05:18:51.125Z,100607.98
2022-11-24T05:21:25.905Z,100605.50
2022-11-24T05:23:57.954Z,100604.01
2022-11-24T05:26:30.357Z,100603.56
2022-11-24T05:29:02.848Z,100605.33
2022-11-24T05:31:35.487Z,100607.34
2022-11-24T05:34:07.531Z,100610.00
2022-11-24T05:36:54.753Z,100611.88
2022-11-24T05:39:26.658Z,100615.96
2022-11-24T05:41:59.204Z,100623.83
2022-11-24T05:44:34.409Z,100625.84
2022-11-24T05:47:06.760Z,100629.36
2022-11-24T05:49:38.944Z,100631.23
2022-11-24T05:52:11.226Z,100631.48
2022-11-24T05:54:43.191Z,100629.85
2022-11-24T05:57:15.398Z,100630.34
2022-11-24T05:59:48.693Z,100627.77
2022-11-24T06:02:20.730Z,100636.61
2022-11-24T06:04:53.412Z,100635.44
2022-11-24T06:07:28.289Z,100637.06
2022-11-24T06:10:00.469Z,100640.07
2022-11-24T06:12:35.072Z,100638.19
2022-11-24T06:15:09.148Z,100636.50
2022-11-24T06:17:41.537Z,100638.61
2022-11-24T06:20:33.473Z,100641.45
2022-11-24T06:23:05.826Z,100639.45
2022-11-24T06:25:38.054Z,100643.40
2022-11-24T06:28:09.951Z,100644.33
2022-11-24T06:30:42.027Z,100641.20
2022-11-24T06:33:14.560Z,100647.46
2022-11-24T06:35:46.907Z,100648.71
2022-11-24T06:38:24.224Z,100647.02
2022-11-24T06:41:06.425Z,100650.40
2022-11-24T06:43:38.779Z,100645.52
2022-11-24T06:46:11.804Z,100649.77
2022-11-24T06:48:43.791Z,100649.23
2022-11-24T06:51:15.806Z,100650.96
2022-11-24T06:53:48.248Z,100649.02
2022-11-24T06:56:22.117Z,100648.52
2022-11-24T06:58:55.247Z,100658.63
2022-11-24T07:01:29.005Z,100660.86
2022-11-24T07:04:01.401Z,100667.05
2022-11-24T07:06:33.824Z,100665.77
2022-11-24T07:09:06.363Z,100662.13
2022-11-24T07:11:38.408Z,100658.23
2022-11-24T07:14:10.655Z,100659.83
2022-11-24T07:16:42.693Z,100664.80
2022-11-24T07:19:15.599Z,100661.60
2022-11-24T07:21:50.531Z,100672.45
2022-11-24T07:24:22.618Z,100673.39
2022-11-24T07:26:54.699Z,100674.79
2022-11-24T07:29:26.682Z,100680.33
2022-11-24T07:32:04.956Z,100685.64
2022-11-24T07:34:40.082Z,100690.01
2022-11-24T07:37:13.137Z,100689.34
2022-11-24T07:39:45.301Z,100689.06
2022-11-24T07:42:20.554Z,100684.17
2022-11-24T07:44:52.495Z,100683.92
2022-11-24T07:47:24.393Z,100694.41
2022-11-24T07:49:56.520Z,100700.05
2022-11-24T07:52:29.645Z,100701.20
2022-11-24T07:55:01.785Z,100699.19
2022-11-24T07:57:33.947Z,100696.55
2022-11-24T08:00:07.415Z,100695.65
2022-11-24T08:02:39.565Z,100695.52
2022-11-24T08:05:12.163Z,100692.77
2022-11-24T08:07:44.094Z,100698.33
2022-11-24T08:10:16.437Z,100693.46
2022-11-24T08:12:51.053Z,100693.20
2022-11-24T08:15:22.971Z,100696.33
2022-11-24T08:17:55.414Z,100704.19
2022-11-24T08:20:27.282Z,100704.50
2022-11-24T08:23:00.965Z,100708.17
2022-11-24T08:25:33.549Z,100708.15
2022-11-24T08:28:06.751Z,100710.77
2022-11-24T08:30:38.627Z,100710.69
2022-11-24T08:33:10.845Z,100708.98
2022-11-24T08:35:44.984Z,100712.00
2022-11-24T08:38:17.491Z,100718.89
2022-11-24T08:40:49.404Z,100713.53
2022-11-24T08:43:22.287Z,100716.40
2022-11-24T08:45:54.275Z,100715.86
2022-11-24T08:48:26.213Z,100716.13
2022-11-24T08:50:58.276Z,100714.02
2022-11-24T08:53:30.179Z,100717.80
2022-11-24T08:56:04.224Z,100722.86
2022-11-24T08:58:37.226Z,100722.40
2022-11-24T09:01:11.329Z,100720.31
2022-11-24T09:03:50.018Z,100722.34
2022-11-24T09:06:25.107Z,100726.77
2022-11-24T09:08:58.080Z,100722.55
2022-11-24T09:11:30.960Z,100721.97
2022-11-24T09:14:02.925Z,100714.02
2022-11-24T09:16:35.169Z,100711.27
2022-11-24T09:19:09.186Z,100716.08
2022-11-24T09:21:42.340Z,100714.02
2022-11-24T09:24:14.234Z,100717.80
2022-11-24T09:26:47.849Z,100713.86
2022-11-24T09:29:20.743Z,100712.15
2022-11-24T09:31:52.805Z,100715.08
2022-11-24T09:34:25.080Z,100718.89
2022-11-24T09:36:58.843Z,100721.91
2022-11-24T09:39:30.973Z,100723.65
2022-11-24T09:42:14.217Z,100721.18
2022-11-24T09:45:26.341Z,100716.16
2022-11-24T09:48:16.960Z,100723.55
2022-11-24T09:50:51.807Z,100715.98
2022-11-24T09:53:32.301Z,100715.73
2022-11-24T09:56:17.213Z,100718.83
2022-11-24T09:58:52.254Z,100722.81
2022-11-24T10:01:29.795Z,100728.34
2022-11-24T10:04:06.437Z,100734.21
2022-11-24T10:06:45.553Z,100737.40
2022-11-24T10:09:34.108Z,100734.17
2022-11-24T10:12:20.588Z,100729.23
2022-11-24T10:15:22.034Z,100730.56
2022-11-24T10:18:16.161Z,100727.46
2022-11-24T10:20:58.315Z,100732.98
2022-11-24T10:23:43.874Z,100736.11
2022-11-24T10:26:22.168Z,100738.64
2022-11-24T10:28:56.806Z,100735.66
2022-11-24T10:31:35.690Z,100728.29
2022-11-24T10:34:24.017Z,100723.47
2022-11-24T10:37:04.086Z,100723.44
2022-11-24T10:39:42.118Z,100721.79
2022-11-24T10:42:19.864Z,100720.91
2022-11-24T10:45:02.318Z,100719.06
2022-11-24T10:47:34.621Z,100713.23
2022-11-24T10:50:15.178Z,100707.70
2022-11-24T10:52:52.545Z,100705.79
2022-11-24T10:55:24.850Z,100710.05
2022-11-24T10:58:03.567Z,100710.44
2022-11-24T11:00:36.782Z,100712.08
2022-11-24T11:03:23.319Z,100716.58
2022-11-24T11:05:57.453Z,100721.86
2022-11-24T11:08:31.362Z,100726.81
2022-11-24T11:11:19.716Z,100733.27
2022-11-24T11:14:02.998Z,100742.23
2022-11-24T11:16:38.886Z,100739.08
2022-11-24T11:19:54.304Z,100739.24
2022-11-24T11:22:31.210Z,100735.17
2022-11-24T11:25:23.710Z,100734.50
2022-11-24T11:28:19.101Z,100739.16
2022-11-24T11:31:18.629Z,100745.03
2022-11-24T11:34:06.280Z,100746.64
2022-11-24T11:36:43.303Z,100754.43
2022-11-24T11:39:24.333Z,100748.64
2022-11-24T11:42:08.409Z,100754.84
2022-11-24T11:44:45.233Z,100757.58
2022-11-24T11:47:27.705Z,100755.13
2022-11-24T11:50:02.328Z,100755.17
2022-11-24T11:53:00.341Z,100755.50
2022-11-24T11:56:00.653Z,100752.77
2022-11-24T11:58:53.179Z,100747.84
2022-11-24T12:01:39.977Z,100742.15
2022-11-24T12:04:22.370Z,100736.67
2022-11-24T12:07:13.102Z,100735.19
2022-11-24T12:09:54.844Z,100735.61
2022-11-24T12:12:49.222Z,100736.75
2022-11-24T12:15:29.391Z,100743.00
2022-11-24T12:18:40.176Z,100747.19
2022-11-24T12:21:21.523Z,100745.69
2022-11-24T12:24:13.575Z,100745.81
2022-11-24T12:26:52.996Z,100751.02
2022-11-24T12:29:48.501Z,100749.45
2022-11-24T12:32:40.986Z,100745.01
2022-11-24T12:35:28.634Z,100757.25
2022-11-24T12:38:16.417Z,100757.17
2022-11-24T12:41:39.298Z,100749.20
2022-11-24T12:44:00.964Z,100754.04
2022-11-24T12:46:43.864Z,100750.08
2022-11-24T12:49:24.559Z,100741.73
2022-11-24T12:52:04.441Z,100746.63
2022-11-24T12:54:41.969Z,100751.22
2022-11-24T12:57:19.966Z,100759.04
2022-11-24T13:00:00.224Z,100752.54
2022-11-24T13:02:48.175Z,100750.33
2022-11-24T13:05:29.944Z,100746.58
2022-11-24T13:08:07.152Z,100753.74
2022-11-24T13:11:00.098Z,100758.25
2022-11-24T13:14:00.134Z,100761.82
2022-11-24T13:16:37.215Z,100758.42
2022-11-24T13:19:18.559Z,100759.36
2022-11-24T13:22:03.808Z,100761.23
2022-11-24T13:24:38.700Z,100760.02
2022-11-24T13:27:43.945Z,100758.79
2022-11-24T13:30:50.276Z,100761.70
2022-11-24T13:33:35.356Z,100757.95
2022-11-24T13:36:54.253Z,100760.30
2022-11-24T13:39:50.912Z,100759.94
2022-11-24T13:42:41.752Z,100769.88
2022-11-24T13:45:58.238Z,100773.45
2022-11-24T13:49:03.172Z,100774.94
2022-11-24T13:51:35.146Z,100776.70
2022-11-24T13:54:14.824Z,100781.44
2022-11-24T13:56:48.299Z,100776.04
2022-11-24T13:59:31.917Z,100773.84
2022-11-24T14:02:24.399Z,100778.86
2022-11-24T14:04:58.070Z,100780.41
2022-11-24T14:07:32.734Z,100778.59
2022-11-24T14:10:05.520Z,100777.17
2022-11-24T14:12:37.433Z,100779.73
2022-11-24T14:15:35.595Z,100783.33
2022-11-24T14:18:24.647Z,100788.78
2022-11-24T14:20:57.079Z,100786.90
2022-11-24T14:23:32.500Z,100789.49
2022-11-24T14:26:04.395Z,100803.50
2022-11-24T14:28:36.459Z,100806.26
2022-11-24T14:31:19.284Z,100806.66
2022-11-24T14:33:52.557Z,100809.50
2022-11-24T14:36:24.652Z,100813.89
2022-11-24T14:38:57.912Z,100811.60
2022-11-24T14:41:30.314Z,100817.61
2022-11-24T14:44:20.280Z,100822.36
2022-11-24T14:47:01.516Z,100824.71
2022-11-24T14:49:35.128Z,100825.11
2022-11-24T14:52:14.380Z,100829.61
2022-11-24T14:54:51.562Z,100835.50
2022-11-24T14:57:32.309Z,100834.98
2022-11-24T15:00:27.308Z,100832.77
2022-11-24T15:03:16.170Z,100836.36
2022-11-24T15:05:58.459Z,100838.62
2022-11-24T15:08:36.836Z,100835.04
2022-11-24T15:11:09.364Z,100829.94
2022-11-24T15:13:41.712Z,100833.48
2022-11-24T15:16:20.442Z,100832.63
2022-11-24T15:19:00.806Z,100836.88
2022-11-24T15:21:37.584Z,100840.53
2022-11-24T15:24:18.725Z,100841.80
2022-11-24T15:26:50.747Z,100845.50
2022-11-24T15:29:22.589Z,100848.16
2022-11-24T15:31:54.624Z,100847.79
2022-11-24T15:34:26.674Z,100853.52
2022-11-24T15:36:58.815Z,100850.98
2022-11-24T15:42:56.058Z,100855.67
2022-11-24T15:45:28.966Z,100856.96
2022-11-24T15:48:01.130Z,100858.38
2022-11-24T15:50:33.334Z,100859.37
2022-11-24T15:53:06.100Z,100861.14
2022-11-24T15:55:38.420Z,100866.62
2022-11-24T15:58:12.699Z,100868.05
2022-11-24T16:00:45.580Z,100869.11
2022-11-24T16:03:45.888Z,100868.70
2022-11-24T16:06:19.092Z,100868.55
2022-11-24T16:08:55.983Z,100865.79
2022-11-24T16:11:28.190Z,100867.55
2022-11-24T16:14:00.310Z,100863.80
2022-11-24T16:16:32.348Z,100868.19
2022-11-24T16:19:04.783Z,100876.29
2022-11-24T16:21:37.064Z,100875.71
2022-11-24T16:24:10.280Z,100872.75
2022-11-24T16:26:42.450Z,100871.98
2022-11-24T16:29:15.097Z,100876.34
2022-11-24T16:31:50.601Z,100881.45
2022-11-24T16:34:22.677Z,100886.02
2022-11-24T16:36:54.777Z,100888.27
2022-11-24T16:39:27.022Z,100892.22
2022-11-24T16:42:04.882Z,100890.06
2022-11-24T16:44:37.597Z,100893.91
2022-11-24T16:47:09.965Z,100894.15
2022-11-24T16:49:42.314Z,100900.77
2022-11-24T16:52:14.418Z,100903.61
2022-11-24T16:54:48.215Z,100903.34
2022-11-24T16:57:20.463Z,100900.20
2022-11-24T16:59:52.557Z,100902.30
2022-11-24T17:02:25.261Z,100901.77
2022-11-24T17:04:57.601Z,100897.80
2022-11-24T17:07:29.790Z,100897.54
2022-11-24T17:10:02.064Z,100895.20
2022-11-24T17:12:35.753Z,100892.98
2022-11-24T17:15:31.976Z,100888.68
2022-11-24T17:21:03.187Z,100902.83
2022-11-24T17:23:39.075Z,100908.30
2022-11-24T17:26:14.453Z,100902.78
2022-11-24T17:28:47.050Z,100904.69
2022-11-24T17:31:22.396Z,100910.18
2022-11-24T17:33:56.741Z,100916.63
2022-11-24T17:36:29.519Z,100924.27
2022-11-24T17:39:04.624Z,100920.70
2022-11-24T17:44:26.952Z,100925.68
2022-11-24T17:47:01.079Z,100932.65
2022-11-24T17:49:33.133Z,100930.64
2022-11-24T17:54:50.975Z,100937.77
2022-11-24T17:57:26.515Z,100939.98
2022-11-24T17:59:58.656Z,100940.62
2022-11-24T18:02:30.776Z,100939.64
2022-11-24T18:05:02.919Z,100938.20
2022-11-24T18:07:37.484Z,100939.33
2022-11-24T18:10:11.222Z,100944.91
2022-11-24T18:12:43.252Z,100947.10
2022-11-24T18:15:15.302Z,100950.89
2022-11-24T18:17:52.492Z,100951.11
2022-11-24T18:20:26.600Z,100954.96
2022-11-24T18:23:05.402Z,100954.81
2022-11-24T18:25:38.441Z,100960.02
2022-11-24T18:28:10.924Z,100959.44
2022-11-24T18:30:42.944Z,100964.11
2022-11-24T18:33:14.927Z,100967.09
2022-11-24T18:35:56.201Z,100964.45
2022-11-24T18:38:28.736Z,100965.48
2022-11-24T18:41:01.569Z,100960.95
2022-11-24T18:43:33.946Z,100963.11
2022-11-24T18:46:08.786Z,100963.52
2022-11-24T18:48:41.736Z,100964.33
2022-11-24T18:51:15.349Z,100965.05
2022-11-24T18:53:51.867Z,100962.08
2022-11-24T18:56:25.370Z,100963.55
2022-11-24T18:58:58.654Z,100963.61
2022-11-24T19:01:32.455Z,100964.08
2022-11-24T19:04:05.400Z,100965.45
2022-11-24T19:06:39.409Z,100967.41
2022-11-24T19:09:14.736Z,100965.48
2022-11-24T19:11:47.941Z,100968.83
2022-11-24T19:14:20.907Z,100962.70
2022-11-24T19:16:52.958Z,100972.05
2022-11-24T19:19:27.230Z,100975.24
2022-11-24T19:22:02.461Z,100976.84
2022-11-24T19:24:35.156Z,100975.70
2022-11-24T19:27:07.422Z,100977.73
2022-11-24T19:29:43.094Z,100980.61
2022-11-24T19:32:16.976Z,100980.45
2022-11-24T19:34:51.232Z,100988.03
2022-11-24T19:37:23.749Z,100988.88
2022-11-24T19:39:55.759Z,100990.17
2022-11-24T19:42:27.663Z,100988.85
2022-11-24T19:44:59.643Z,100984.84
2022-11-24T19:47:32.046Z,100986.09
2022-11-24T19:50:10.221Z,100988.83
2022-11-24T19:52:42.704Z,100993.52
2022-11-24T19:55:14.679Z,100994.73
2022-11-24T19:57:46.760Z,100988.62
2022-11-24T20:00:20.470Z,100987.44
2022-11-24T20:02:53.371Z,100992.10
2022-11-24T20:05:25.502Z,100997.78
2022-11-24T20:07:57.484Z,101009.30
2022-11-24T20:10:29.509Z,101008.30
2022-11-24T20:13:01.610Z,101012.26
2022-11-24T20:15:37.042Z,101011.55
2022-11-24T20:18:09.239Z,101015.70
2022-11-24T20:20:41.138Z,101017.55
2022-11-24T20:23:13.187Z,101020.34
2022-11-24T20:25:45.247Z,101022.02
2022-11-24T20:28:19.869Z,101026.41
2022-11-24T20:30:51.955Z,101029.48
2022-11-24T20:33:24.012Z,101033.55
2022-11-24T20:35:56.255Z,101033.20
2022-11-24T20:38:29.641Z,101034.94
2022-11-24T20:41:09.216Z,101033.52
2022-11-24T20:43:43.745Z,101033.34
2022-11-24T20:46:17.921Z,101031.11
2022-11-24T20:48:50.415Z,101030.71
2022-11-24T20:51:24.827Z,101028.62
2022-11-24T20:53:59.965Z,101021.82
2022-11-24T20:56:34.301Z,101022.98
2022-11-24T20:59:09.212Z,101020.05
2022-11-24T21:01:42.978Z,101021.98
2022-11-24T21:04:17.198Z,101012.62
2022-11-24T21:06:49.710Z,101010.35
2022-11-24T21:09:21.971Z,101015.01
2022-11-24T21:11:54.819Z,101008.67
2022-11-24T21:14:30.023Z,101011.59
2022-11-24T21:17:04.431Z,101014.45
2022-11-24T21:19:36.501Z,101014.41
2022-11-24T21:22:10.924Z,101014.19
2022-11-24T21:24:42.906Z,101012.73
2022-11-24T21:27:14.871Z,101018.25
2022-11-24T21:29:54.243Z,101017.03
2022-11-24T21:32:26.690Z,101020.00
2022-11-24T21:35:04.099Z,101024.80
2022-11-24T21:37:36.516Z,101027.59
2022-11-24T21:40:10.507Z,101024.96
2022-11-24T21:42:42.425Z,101033.64
2022-11-24T21:45:23.763Z,101043.15
2022-11-24T21:47:56.177Z,101048.23
2022-11-24T21:50:28.365Z,101051.00
2022-11-24T21:53:03.718Z,101049.55
2022-11-24T21:55:36.031Z,101056.45
2022-11-24T21:58:12.755Z,101060.42
2022-11-24T22:00:44.811Z,101070.92
2022-11-24T22:03:16.769Z,101074.84
2022-11-24T22:05:57.169Z,101072.16
2022-11-24T22:08:31.296Z,101067.79
2022-11-24T22:11:07.595Z,101062.38
2022-11-24T22:13:42.495Z,101052.25
2022-11-24T22:16:16.460Z,101056.14
2022-11-24T22:18:49.239Z,101059.82
2022-11-24T22:21:24.114Z,101061.07
2022-11-24T22:26:43.973Z,101061.48
2022-11-24T22:29:16.161Z,101061.87
2022-11-24T22:31:50.486Z,101062.55
2022-11-24T22:34:22.676Z,101064.64
2022-11-24T22:36:54.826Z,101061.13
2022-11-24T22:39:26.897Z,101064.35
2022-11-24T22:41:58.781Z,101066.36
2022-11-24T22:44:31.084Z,101071.80
2022-11-24T22:47:05.205Z,101071.77
2022-11-24T22:49:37.087Z,101068.05
2022-11-24T22:52:11.458Z,101067.68
2022-11-24T22:54:43.342Z,101072.00
2022-11-24T22:57:15.168Z,101073.25
2022-11-24T22:59:47.156Z,101077.16
2022-11-24T23:02:19.011Z,101076.84
2022-11-24T23:04:51.140Z,101071.76
2022-11-24T23:07:23.065Z,101074.11
2022-11-24T23:09:55.096Z,101072.91
2022-11-24T23:12:29.802Z,101075.35
2022-11-24T23:15:01.677Z,101070.20
2022-11-24T23:17:33.543Z,101078.96
2022-11-24T23:20:05.769Z,101080.25
2022-11-24T23:22:37.680Z,101081.23
2022-11-24T23:25:11.005Z,101082.75
2022-11-24T23:27:42.895Z,101080.98
2022-11-24T23:30:15.614Z,101081.05
2022-11-24T23:32:47.479Z,101083.42
2022-11-24T23:35:19.997Z,101079.61
2022-11-24T23:38:07.106Z,101076.05
2022-11-24T23:40:40.016Z,101072.80
2022-11-24T23:43:14.353Z,101075.25
2022-11-24T23:45:46.582Z,101077.29
2022-11-24T23:48:19.041Z,101077.95
2022-11-24T23:50:52.228Z,101074.79
2022-11-24T23:53:24.103Z,101076.00
2022-11-24T23:55:57.111Z,101074.65
2022-11-24T23:58:29.534Z,101075.77
